(°F)
63°
64°
66°
67°
68°
70°
71°
(°F)
57°
57°
57°
58°
59°
60°
61°
SW
SW
SSW
SSW
SSW
SSW
SSW
(mph)
3-9
6-12
7-14
9-14
9-19
9-17
9-26
(in)
0
0
0
0
0
0
0
(%)
0
7
16
7
8
16
15

Sun elevation

/ -1.4°
sun-icon
UV 7
06:18
18:33
Waxing crescent moon (8°)
06:45
19:11

METAR for Upington Airport (FAUP)

Time Conditions Temperature/
Dewpoint
Wind Visibility Weather Clouds Pressure Change Raw
VFR 62.6°F / 39.2°F 160º 2kt >10km - Clouds and Visibility OK 1014 No Significant change FAUP 260400Z 16002KT CAVOK 17/04 Q1014 NOSIG
VFR 62.6°F / 37.4°F 210º 2kt >10km - Clouds and Visibility OK 1013 No Significant change FAUP 260300Z 21002KT CAVOK 17/03 Q1013 RESH NOSIG
VFR 60.8°F / 39.2°F 230º 3kt >10km - Clouds and Visibility OK 1013 No Significant change FAUP 260200Z 23003KT CAVOK 16/04 Q1013 NOSIG
VFR 60.8°F / 39.2°F 350º 2kt >10km - Clouds and Visibility OK 1013 No Significant change FAUP 260100Z 35002KT CAVOK 16/04 Q1013 NOSIG
VFR 64.4°F / 39.2°F 310º 5kt >10km - Clouds and Visibility OK 1014 No Significant change FAUP 260000Z 31005KT CAVOK 18/04 Q1014 NOSIG
VFR 64.4°F / 39.2°F 350º 5kt >10km - Clouds and Visibility OK 1014 No Significant change FAUP 252300Z 35005KT CAVOK 18/04 Q1014 NOSIG
66.2°F / 41°F 40º 6kt - 1013 - FAUP 252200Z AUTO 04006KT //// // ////// 19/05 Q1013
69.8°F / 41°F 310º 2kt - 1013 - FAUP 252100Z AUTO 31002KT //// // ////// 21/05 Q1013
68°F / 39.2°F 60º 1kt - 1013 - FAUP 252000Z AUTO 06001KT //// // ////// 20/04 Q1013
68°F / 39.2°F 100º 2kt - 1013 - FAUP 251900Z AUTO 10002KT //// // ////// 20/04 Q1013
VFR 69.8°F / 39.2°F 190º 3kt >10km - Clouds and Visibility OK 1013 No Significant change FAUP 251800Z 19003KT CAVOK 21/04 Q1013 NOSIG
VFR 71.6°F / 35.6°F 210º 3kt >10km - Clouds and Visibility OK 1012 No Significant change FAUP 251700Z 21003KT CAVOK 22/02 Q1012 NOSIG
VFR 75.2°F / 33.8°F 220º 8kt >10km - Clouds and Visibility OK 1011 No Significant change FAUP 251600Z 22008KT CAVOK 24/01 Q1011 NOSIG
VFR 77°F / 32°F 210º 11kt >10km - Clouds and Visibility OK 1011 No Significant change FAUP 251500Z 21011KT CAVOK 25/00 Q1011 NOSIG
VFR 86°F / 30.2°F 210º 12kt >10km - Clouds and Visibility OK 1010 No Significant change FAUP 251400Z 21012KT CAVOK 30/M01 Q1010 NOSIG
VFR 86°F / 28.4°F 260º 12kt >10km - Clouds and Visibility OK 1010 No Significant change FAUP 251300Z 26012KT CAVOK 30/M02 Q1010 NOSIG
VFR 89.6°F / 32°F 260º 10kt >10km - Clouds and Visibility OK 1011 No Significant change FAUP 251200Z 26010KT CAVOK 32/M00 Q1011 NOSIG
VFR 89.6°F / 30.2°F 290º 8kt >10km - Clouds and Visibility OK 1011 No Significant change FAUP 251100Z 29008KT CAVOK 32/M01 Q1011 NOSIG
VFR 89.6°F / 28.4°F 300º 4kt >10km - Clouds and Visibility OK 1011 No Significant change FAUP 251000Z 30004KT CAVOK 32/M02 Q1011 NOSIG
VFR 89.6°F / 28.4°F 200º 2kt >10km - Clouds and Visibility OK 1012 No Significant change FAUP 250943Z 20002KT CAVOK 32/M02 Q1012 NOSIG
VFR 86°F / 24.8°F 90º 7kt >10km - Clouds and Visibility OK 1012 No Significant change FAUP 250900Z 09007KT CAVOK 30/M04 Q1012 NOSIG
VFR 82.4°F / 26.6°F 50º 5kt >10km - Clouds and Visibility OK 1013 No Significant change FAUP 250800Z 05005KT CAVOK 28/M03 Q1013 NOSIG
VFR 80.6°F / 28.4°F 80º 4kt >10km - Clouds and Visibility OK 1013 No Significant change FAUP 250743Z 08004KT CAVOK 27/M02 Q1013 NOSIG
VFR 75.2°F / 26.6°F 80º 3kt >10km - Clouds and Visibility OK 1014 No Significant change FAUP 250700Z 08003KT CAVOK 24/M03 Q1014 NOSIG

VFR

62.6°F / 39.2°F

[More]
Wind 160º 2kt
Visibility >10km
Weather -
Clouds Clouds and Visibility OK
Pressure 1014
Change No Significant change
Raw FAUP 260400Z 16002KT CAVOK 17/04 Q1014 NOSIG

VFR

62.6°F / 37.4°F

[More]
Wind 210º 2kt
Visibility >10km
Weather -
Clouds Clouds and Visibility OK
Pressure 1013
Change No Significant change
Raw FAUP 260300Z 21002KT CAVOK 17/03 Q1013 RESH NOSIG

VFR

60.8°F / 39.2°F

[More]
Wind 230º 3kt
Visibility >10km
Weather -
Clouds Clouds and Visibility OK
Pressure 1013
Change No Significant change
Raw FAUP 260200Z 23003KT CAVOK 16/04 Q1013 NOSIG

VFR

60.8°F / 39.2°F

[More]
Wind 350º 2kt
Visibility >10km
Weather -
Clouds Clouds and Visibility OK
Pressure 1013
Change No Significant change
Raw FAUP 260100Z 35002KT CAVOK 16/04 Q1013 NOSIG

VFR

64.4°F / 39.2°F

[More]
Wind 310º 5kt
Visibility >10km
Weather -
Clouds Clouds and Visibility OK
Pressure 1014
Change No Significant change
Raw FAUP 260000Z 31005KT CAVOK 18/04 Q1014 NOSIG

VFR

64.4°F / 39.2°F

[More]
Wind 350º 5kt
Visibility >10km
Weather -
Clouds Clouds and Visibility OK
Pressure 1014
Change No Significant change
Raw FAUP 252300Z 35005KT CAVOK 18/04 Q1014 NOSIG

66.2°F / 41°F

[More]
Wind 40º 6kt
Visibility
Weather -
Clouds
Pressure 1013
Change -
Raw FAUP 252200Z AUTO 04006KT //// // ////// 19/05 Q1013

69.8°F / 41°F

[More]
Wind 310º 2kt
Visibility
Weather -
Clouds
Pressure 1013
Change -
Raw FAUP 252100Z AUTO 31002KT //// // ////// 21/05 Q1013

68°F / 39.2°F

[More]
Wind 60º 1kt
Visibility
Weather -
Clouds
Pressure 1013
Change -
Raw FAUP 252000Z AUTO 06001KT //// // ////// 20/04 Q1013

68°F / 39.2°F

[More]
Wind 100º 2kt
Visibility
Weather -
Clouds
Pressure 1013
Change -
Raw FAUP 251900Z AUTO 10002KT //// // ////// 20/04 Q1013

VFR

69.8°F / 39.2°F

[More]
Wind 190º 3kt
Visibility >10km
Weather -
Clouds Clouds and Visibility OK
Pressure 1013
Change No Significant change
Raw FAUP 251800Z 19003KT CAVOK 21/04 Q1013 NOSIG

VFR

71.6°F / 35.6°F

[More]
Wind 210º 3kt
Visibility >10km
Weather -
Clouds Clouds and Visibility OK
Pressure 1012
Change No Significant change
Raw FAUP 251700Z 21003KT CAVOK 22/02 Q1012 NOSIG

VFR

75.2°F / 33.8°F

[More]
Wind 220º 8kt
Visibility >10km
Weather -
Clouds Clouds and Visibility OK
Pressure 1011
Change No Significant change
Raw FAUP 251600Z 22008KT CAVOK 24/01 Q1011 NOSIG

VFR

77°F / 32°F

[More]
Wind 210º 11kt
Visibility >10km
Weather -
Clouds Clouds and Visibility OK
Pressure 1011
Change No Significant change
Raw FAUP 251500Z 21011KT CAVOK 25/00 Q1011 NOSIG

VFR

86°F / 30.2°F

[More]
Wind 210º 12kt
Visibility >10km
Weather -
Clouds Clouds and Visibility OK
Pressure 1010
Change No Significant change
Raw FAUP 251400Z 21012KT CAVOK 30/M01 Q1010 NOSIG

VFR

86°F / 28.4°F

[More]
Wind 260º 12kt
Visibility >10km
Weather -
Clouds Clouds and Visibility OK
Pressure 1010
Change No Significant change
Raw FAUP 251300Z 26012KT CAVOK 30/M02 Q1010 NOSIG

VFR

89.6°F / 32°F

[More]
Wind 260º 10kt
Visibility >10km
Weather -
Clouds Clouds and Visibility OK
Pressure 1011
Change No Significant change
Raw FAUP 251200Z 26010KT CAVOK 32/M00 Q1011 NOSIG

VFR

89.6°F / 30.2°F

[More]
Wind 290º 8kt
Visibility >10km
Weather -
Clouds Clouds and Visibility OK
Pressure 1011
Change No Significant change
Raw FAUP 251100Z 29008KT CAVOK 32/M01 Q1011 NOSIG

VFR

89.6°F / 28.4°F

[More]
Wind 300º 4kt
Visibility >10km
Weather -
Clouds Clouds and Visibility OK
Pressure 1011
Change No Significant change
Raw FAUP 251000Z 30004KT CAVOK 32/M02 Q1011 NOSIG

VFR

89.6°F / 28.4°F

[More]
Wind 200º 2kt
Visibility >10km
Weather -
Clouds Clouds and Visibility OK
Pressure 1012
Change No Significant change
Raw FAUP 250943Z 20002KT CAVOK 32/M02 Q1012 NOSIG

VFR

86°F / 24.8°F

[More]
Wind 90º 7kt
Visibility >10km
Weather -
Clouds Clouds and Visibility OK
Pressure 1012
Change No Significant change
Raw FAUP 250900Z 09007KT CAVOK 30/M04 Q1012 NOSIG

VFR

82.4°F / 26.6°F

[More]
Wind 50º 5kt
Visibility >10km
Weather -
Clouds Clouds and Visibility OK
Pressure 1013
Change No Significant change
Raw FAUP 250800Z 05005KT CAVOK 28/M03 Q1013 NOSIG

VFR

80.6°F / 28.4°F

[More]
Wind 80º 4kt
Visibility >10km
Weather -
Clouds Clouds and Visibility OK
Pressure 1013
Change No Significant change
Raw FAUP 250743Z 08004KT CAVOK 27/M02 Q1013 NOSIG

VFR

75.2°F / 26.6°F

[More]
Wind 80º 3kt
Visibility >10km
Weather -
Clouds Clouds and Visibility OK
Pressure 1014
Change No Significant change
Raw FAUP 250700Z 08003KT CAVOK 24/M03 Q1014 NOSIG

TAF for Upington Airport (FAUP)

From till


Maximum Temperature 33ºC on . Minimum Temperature 15ºC on .
From till Wind variable 3kt. Visibility 10km or more. Nil Significant Cloud.

Raw: TAF FAUP 252200Z 2600/2624 VRB03KT CAVOK TX33/2612Z TN15/2604Z

Other airports around Upington Airport

Radar and precipitation nowcast for Upington Airport

Drizzle
Light
Moderate
Heavy
Very Heavy
Hail

The location marker is placed on Upington Airport. This animation shows the precipitation radar for the last hour, as well as a 1h forecast. Drizzle or light snow fall might be invisible for the radar. Precipitation intensity is colour coded, ranging from light blue to orange.

Current satellite and rain images for Upington Airport, South Africa

The location marker is placed on Upington Airport. [More]

The real-time satellite image combines visible light during daytime with infrared radiation during nighttime. At night, the image is not dark as infrared radiation can detect temperature differences. Unfortunately, low clouds and fog are difficult to distinguish from ground temperatures and thus can be almost invisible during the night. Meteosat satellite images for Europe are updated in real-time every 5 minutes. GOES-16/GOES-17 (North & South America) and Himawari (Asia) images update every 10 minutes.

Precipitation is estimated from radar and satellites. Precipitation estimates from satellites are less accurate at night than during daytime. Orange crosses mark places where lightning was detected (over Europe).

Copyright 2022 EUMETSAT / meteoblue. Lightning data provided by nowcast.

Back to top